Aviation Digital Data Service (ADDS)

Output produced by METARs form (0708 UTC 24 May 2015)
found at http://www.aviationweather.gov/adds/metars/
 
KWWD 240655Z AUTO 21003KT 10SM CLR 11/07 A3041 RMK AO1